Time;durP1;ratioP1;P1;durP2;ratioP2;P2;SDS_P1;SDS_P2;PMS_P1;PMS_P2;Temp;Humidity;BMP_temperature;BMP_pressure;BME280_temperature;BME280_humidity;BME280_pressure;Samples;Min_cycle;Max_cycle;Signal;HPM_P1;HPM_P2
2023/01/01 00:01:27;;;;;;;86.10;41.57;;;;;;;-145.69;100.00;52535.47;5055820;28;20226;-74
2023/01/01 00:03:57;;;;;;;82.37;35.37;;;;;;;-145.69;100.00;52559.25;5055842;28;20199;-75
2023/01/01 00:06:24;;;;;;;49.70;22.93;;;;;;;-145.69;100.00;52547.38;5056073;28;20208;-75
2023/01/01 00:10:26;;;;;;;33.37;14.63;;;;;;;-145.69;100.00;52535.47;5081252;28;20672;-75
2023/01/01 00:11:38;;;;;;;29.13;15.10;;;;;;;-145.69;100.00;52543.41;5093701;28;20198;-76
2023/01/01 00:14:04;;;;;;;40.80;21.37;;;;;;;-145.69;100.00;52529.53;5075523;28;20206;-75
2023/01/01 00:16:31;;;;;;;37.43;18.63;;;;;;;-145.69;100.00;52509.75;5075774;28;20229;-74
2023/01/01 00:18:58;;;;;;;38.40;15.63;;;;;;;-145.69;100.00;52529.53;5074381;28;20209;-75
2023/01/01 00:21:25;;;;;;;20.07;9.07;;;;;;;-145.69;100.00;52551.31;5083956;28;20201;-75
2023/01/01 00:23:51;;;;;;;17.20;7.70;;;;;;;-145.69;100.00;52531.53;5095848;28;20202;-76
2023/01/01 00:26:18;;;;;;;15.20;6.50;;;;;;;-145.69;100.00;52531.53;5095762;28;20209;-74
2023/01/01 00:28:46;;;;;;;15.90;6.50;;;;;;;-145.69;100.00;52551.31;5095319;28;20217;-75
2023/01/01 00:31:15;;;;;;;14.70;6.40;;;;;;;-145.69;100.00;52519.63;5095153;28;20691;-75
2023/01/01 00:33:42;;;;;;;8.23;4.80;;;;;;;-145.69;100.00;52529.53;5095824;28;20293;-76
2023/01/01 00:36:11;;;;;;;12.30;5.43;;;;;;;-145.69;100.00;52523.59;5095369;28;20225;-75
2023/01/01 00:38:38;;;;;;;13.70;5.97;;;;;;;-145.69;100.00;52551.31;5094665;28;20202;-75
2023/01/01 00:41:05;;;;;;;13.13;6.43;;;;;;;-145.69;100.00;52535.47;5095202;28;20209;-75
2023/01/01 00:43:32;;;;;;;9.13;5.20;;;;;;;-145.69;100.00;52539.44;5079664;28;20198;-76
2023/01/01 00:45:58;;;;;;;10.27;5.57;;;;;;;-145.69;100.00;52531.53;5075145;28;20199;-75
2023/01/01 00:48:25;;;;;;;9.53;4.53;;;;;;;-145.69;100.00;52539.44;5075120;28;20206;-76
2023/01/01 00:50:52;;;;;;;8.63;4.20;;;;;;;-145.69;100.00;52545.38;5074892;28;20194;-75
2023/01/01 00:53:21;;;;;;;8.63;4.63;;;;;;;-145.69;100.00;52586.97;5074968;28;20203;-76
2023/01/01 00:55:49;;;;;;;7.83;4.53;;;;;;;-145.69;100.00;52539.44;5074485;28;20235;-76
2023/01/01 00:58:17;;;;;;;6.90;4.30;;;;;;;-145.69;100.00;52547.38;5075109;28;20202;-76
2023/01/01 01:00:44;;;;;;;9.63;4.53;;;;;;;-145.69;100.00;52531.53;5074983;28;20206;-75
2023/01/01 01:03:26;;;;;;;7.43;3.70;;;;;;;-145.69;100.00;52579.06;5074685;28;20210;-76
2023/01/01 01:05:53;;;;;;;8.13;4.03;;;;;;;-145.69;100.00;52557.28;5074723;28;20202;-75
2023/01/01 01:08:21;;;;;;;7.50;4.03;;;;;;;-145.69;100.00;52523.59;5074590;28;20195;-75
2023/01/01 01:10:47;;;;;;;4.90;2.77;;;;;;;-145.69;100.00;52529.53;5074225;28;20206;-75
2023/01/01 01:13:14;;;;;;;7.60;3.63;;;;;;;-145.69;100.00;52523.59;5074082;28;20283;-76
2023/01/01 01:15:40;;;;;;;8.03;2.97;;;;;;;-145.69;100.00;52531.53;5074164;28;20233;-75
2023/01/01 01:18:06;;;;;;;5.90;3.00;;;;;;;-145.69;100.00;52545.38;5074359;28;20653;-75
2023/01/01 01:20:33;;;;;;;6.67;3.00;;;;;;;-145.69;100.00;52513.69;5074342;28;20211;-74
2023/01/01 01:23:00;;;;;;;6.20;3.00;;;;;;;-145.69;100.00;52525.59;5074276;28;20892;-76
2023/01/01 01:25:28;;;;;;;4.17;2.60;;;;;;;-145.69;100.00;52559.25;5074261;28;20214;-76
2023/01/01 01:27:54;;;;;;;4.67;2.93;;;;;;;-145.69;100.00;52537.47;5074272;28;20768;-76
2023/01/01 01:30:21;;;;;;;6.33;3.10;;;;;;;-145.69;100.00;52537.47;5074210;28;20205;-75
2023/01/01 01:32:47;;;;;;;6.50;2.77;;;;;;;-145.69;100.00;52531.53;5074044;28;20210;-75
2023/01/01 01:35:14;;;;;;;7.50;3.40;;;;;;;-145.69;100.00;52503.81;5074082;28;20233;-75
2023/01/01 01:37:40;;;;;;;8.20;3.73;;;;;;;-145.69;100.00;52539.44;5074478;28;20203;-76
2023/01/01 01:40:08;;;;;;;13.70;5.10;;;;;;;-145.69;100.00;52549.34;5074468;28;20199;-75
2023/01/01 01:42:36;;;;;;;14.27;6.60;;;;;;;-145.69;100.00;52545.38;5073513;28;20230;-75
2023/01/01 01:45:03;;;;;;;23.20;10.10;;;;;;;-145.69;100.00;52519.63;5074015;28;20226;-75
2023/01/01 01:47:34;;;;;;;21.37;10.07;;;;;;;-145.69;100.00;52571.13;5073752;28;20203;-75
2023/01/01 01:50:08;;;;;;;29.23;14.70;;;;;;;-145.69;100.00;52577.06;5072919;28;20438;-75
2023/01/01 01:52:39;;;;;;;23.90;11.50;;;;;;;-145.69;100.00;52523.59;5073776;28;20204;-75
2023/01/01 01:55:08;;;;;;;26.33;12.93;;;;;;;-145.69;100.00;52569.16;5073370;28;20187;-75
2023/01/01 01:57:37;;;;;;;24.07;10.97;;;;;;;-145.69;100.00;52535.47;5073393;28;20202;-75
2023/01/01 02:00:04;;;;;;;12.10;6.67;;;;;;;-145.69;100.00;52525.59;5074039;28;20206;-75
2023/01/01 02:02:36;;;;;;;18.33;8.67;;;;;;;-145.69;100.00;52559.25;5073703;28;20225;-75
2023/01/01 02:05:04;;;;;;;26.87;11.10;;;;;;;-145.69;100.00;52547.38;5073818;28;20199;-76
2023/01/01 02:07:32;;;;;;;27.73;12.17;;;;;;;-145.69;100.00;52573.13;5070557;28;20202;-75
2023/01/01 02:10:00;;;;;;;23.97;12.27;;;;;;;-145.69;100.00;52555.28;5073316;28;20584;-75
2023/01/01 02:12:27;;;;;;;25.13;12.80;;;;;;;-145.69;100.00;52535.47;5073252;28;20577;-75
2023/01/01 02:14:55;;;;;;;29.27;13.43;;;;;;;-145.69;100.00;52586.97;5073411;28;20218;-76
2023/01/01 02:17:28;;;;;;;30.30;14.40;;;;;;;-145.69;100.00;52557.28;5072823;28;20229;-75
2023/01/01 02:20:11;;;;;;;34.07;14.07;;;;;;;-145.69;100.00;52527.56;5073426;28;20203;-75
2023/01/01 02:23:06;;;;;;;19.40;9.97;;;;;;;-145.69;100.00;52543.41;5072841;28;20198;-75
2023/01/01 02:25:47;;;;;;;20.57;9.20;;;;;;;-145.69;100.00;52555.28;5072657;28;20649;-75
2023/01/01 02:28:24;;;;;;;20.53;10.03;;;;;;;-145.69;100.00;52559.25;5073050;28;20199;-74
2023/01/01 02:30:55;;;;;;;22.80;9.53;;;;;;;-145.69;100.00;52551.31;5073115;28;20217;-75
2023/01/01 02:33:26;;;;;;;25.83;10.17;;;;;;;-145.69;100.00;52545.38;5073091;28;20202;-77
2023/01/01 02:35:57;;;;;;;19.07;9.13;;;;;;;-145.69;100.00;52531.53;5072964;28;20222;-74
2023/01/01 02:38:28;;;;;;;20.00;9.27;;;;;;;-145.69;100.00;52513.69;5072694;28;20206;-76
2023/01/01 02:40:59;;;;;;;17.40;8.73;;;;;;;-145.69;100.00;52541.44;5072949;28;20650;-76
2023/01/01 02:43:25;;;;;;;19.43;9.70;;;;;;;-145.69;100.00;52577.06;5073058;28;20202;-76
2023/01/01 02:45:54;;;;;;;22.80;9.53;;;;;;;-145.69;100.00;52535.47;5072817;28;20202;-76
2023/01/01 02:48:39;;;;;;;19.93;9.70;;;;;;;-145.69;100.00;52600.84;5072266;28;20198;-75
2023/01/01 02:51:17;;;;;;;21.80;9.53;;;;;;;-145.69;100.00;52600.84;5072865;28;20210;-76
2023/01/01 02:53:51;;;;;;;18.77;8.40;;;;;;;-145.69;100.00;52555.28;5072947;28;20256;-76
2023/01/01 02:56:27;;;;;;;19.47;8.43;;;;;;;-145.69;100.00;52563.22;5072665;28;20229;-76
2023/01/01 03:01:50;;;;;;;17.20;8.13;;;;;;;-145.69;100.00;52557.28;5072123;28;20344;-76
2023/01/01 03:04:24;;;;;;;17.57;8.23;;;;;;;-145.69;100.00;52563.22;5072745;28;20195;-76
2023/01/01 03:06:55;;;;;;;17.53;7.67;;;;;;;-145.69;100.00;52543.41;5072530;28;20698;-76
2023/01/01 03:09:32;;;;;;;15.43;7.20;;;;;;;-145.69;100.00;52553.31;5072885;28;20207;-76
2023/01/01 03:12:04;;;;;;;15.30;6.97;;;;;;;-145.69;100.00;52555.28;5072817;28;20577;-76
2023/01/01 03:14:38;;;;;;;17.50;7.27;;;;;;;-145.69;100.00;52579.06;5072501;28;20195;-76
2023/01/01 03:17:11;;;;;;;15.77;6.33;;;;;;;-145.69;100.00;52563.22;5072884;28;20221;-76
2023/01/01 03:19:41;;;;;;;14.00;6.40;;;;;;;-145.69;100.00;52606.78;5072616;28;20275;-76
2023/01/01 03:22:12;;;;;;;19.77;7.53;;;;;;;-145.69;100.00;52586.97;5071327;28;20241;-76
2023/01/01 03:24:41;;;;;;;19.17;6.97;;;;;;;-145.69;100.00;52594.91;5072794;28;20207;-76
2023/01/01 03:27:13;;;;;;;13.57;7.03;;;;;;;-145.69;100.00;52551.31;5072665;28;20194;-77
2023/01/01 03:29:41;;;;;;;13.30;6.30;;;;;;;-145.69;100.00;52614.72;5072522;28;20203;-77
2023/01/01 03:32:13;;;;;;;12.17;6.30;;;;;;;-145.69;100.00;52561.22;5072312;28;20195;-77
2023/01/01 03:34:43;;;;;;;13.63;7.17;;;;;;;-145.69;100.00;52579.06;5072657;28;20203;-76
2023/01/01 03:37:15;;;;;;;16.57;7.20;;;;;;;-145.69;100.00;52579.06;5072230;28;20234;-76
2023/01/01 03:39:47;;;;;;;18.27;8.20;;;;;;;-145.69;100.00;52588.97;5072321;28;20199;-76
2023/01/01 03:42:21;;;;;;;17.87;7.30;;;;;;;-145.69;100.00;52590.94;5073493;28;20223;-76
2023/01/01 03:44:51;;;;;;;15.63;7.10;;;;;;;-145.69;100.00;52577.06;5072530;28;20210;-76
2023/01/01 03:47:19;;;;;;;15.70;6.77;;;;;;;-145.69;100.00;52555.28;5072470;28;20202;-76
2023/01/01 03:49:46;;;;;;;14.10;7.00;;;;;;;-145.69;100.00;52590.94;5071840;28;20195;-77
2023/01/01 03:52:23;;;;;;;13.70;6.07;;;;;;;-145.69;100.00;52559.25;5072439;28;20206;-76
2023/01/01 03:54:56;;;;;;;12.73;5.97;;;;;;;-145.69;100.00;52604.81;5072223;28;20241;-77
2023/01/01 03:57:30;;;;;;;14.97;6.10;;;;;;;-145.69;100.00;52559.25;5072494;28;20226;-77
2023/01/01 04:00:04;;;;;;;13.80;6.43;;;;;;;-145.69;100.00;52586.97;5072430;28;20206;-76
2023/01/01 04:02:36;;;;;;;14.03;6.47;;;;;;;-145.69;100.00;52583.00;5072336;28;20202;-77
2023/01/01 04:05:06;;;;;;;13.07;6.10;;;;;;;-145.69;100.00;52575.09;5072098;28;20199;-76
2023/01/01 04:07:34;;;;;;;14.73;6.97;;;;;;;-145.69;100.00;52596.88;5071885;28;20217;-77
2023/01/01 04:10:15;;;;;;;12.37;6.10;;;;;;;-145.69;100.00;52577.06;5072415;28;20616;-76
2023/01/01 04:12:43;;;;;;;12.70;6.13;;;;;;;-145.69;100.00;52588.97;5068935;28;20203;-77
2023/01/01 04:15:10;;;;;;;14.17;6.50;;;;;;;-145.69;100.00;52590.94;5074799;28;20202;-76
2023/01/01 04:17:38;;;;;;;13.47;6.63;;;;;;;-145.69;100.00;52581.03;5075426;28;20226;-76
2023/01/01 04:20:06;;;;;;;10.90;5.07;;;;;;;-145.69;100.00;52604.81;5075582;28;20207;-76
2023/01/01 04:22:33;;;;;;;12.70;6.33;;;;;;;-145.69;100.00;52555.28;5075890;28;20199;-76
2023/01/01 04:24:59;;;;;;;11.70;5.30;;;;;;;-145.69;100.00;52541.44;5075365;28;20222;-76
2023/01/01 04:27:26;;;;;;;15.93;5.97;;;;;;;-145.69;100.00;52563.22;5075709;28;20207;-76
2023/01/01 04:29:52;;;;;;;13.53;5.67;;;;;;;-145.69;100.00;52571.13;5075746;28;20198;-76
2023/01/01 04:32:18;;;;;;;14.60;5.63;;;;;;;-145.69;100.00;52600.84;5075074;28;20195;-77
2023/01/01 04:34:46;;;;;;;13.13;5.57;;;;;;;-145.69;100.00;52583.00;5075239;28;20206;-77
2023/01/01 04:37:13;;;;;;;14.10;5.70;;;;;;;-145.69;100.00;52583.00;5075203;28;20632;-77
2023/01/01 04:39:39;;;;;;;14.00;6.17;;;;;;;-145.69;100.00;52575.09;5074845;28;20191;-77
2023/01/01 04:42:06;;;;;;;16.60;7.13;;;;;;;-145.69;100.00;52577.06;5071725;28;20234;-76
2023/01/01 04:44:32;;;;;;;18.67;6.60;;;;;;;-145.69;100.00;52598.84;5074921;28;20206;-76
2023/01/01 04:46:58;;;;;;;19.53;6.87;;;;;;;-145.69;100.00;52590.94;5074579;28;20206;-76
2023/01/01 04:49:25;;;;;;;13.47;6.57;;;;;;;-145.69;100.00;52608.75;5075188;28;20206;-76
2023/01/01 04:51:53;;;;;;;16.47;6.27;;;;;;;-145.69;100.00;52549.34;5074762;28;20206;-76
2023/01/01 04:54:19;;;;;;;14.10;6.47;;;;;;;-145.69;100.00;52614.72;5074640;28;20198;-76
2023/01/01 04:56:45;;;;;;;16.27;6.00;;;;;;;-145.69;100.00;52594.91;5074895;28;20218;-76
2023/01/01 04:59:12;;;;;;;13.17;5.87;;;;;;;-145.69;100.00;52585.00;5074927;28;20210;-77
2023/01/01 05:01:39;;;;;;;14.13;6.00;;;;;;;-145.69;100.00;52563.22;5074185;28;20203;-76
2023/01/01 05:04:05;;;;;;;13.47;6.20;;;;;;;-145.69;100.00;52590.94;5074857;28;20206;-76
2023/01/01 05:06:31;;;;;;;14.93;6.60;;;;;;;-145.69;100.00;52586.97;5074747;28;20209;-77
2023/01/01 05:09:00;;;;;;;14.00;5.93;;;;;;;-145.69;100.00;52579.06;5074875;28;20198;-76
2023/01/01 05:11:28;;;;;;;15.60;6.00;;;;;;;-145.69;100.00;52535.47;5074479;28;20565;-76
2023/01/01 05:13:56;;;;;;;10.40;5.53;;;;;;;-145.69;100.00;52598.84;5074504;28;20199;-76
2023/01/01 05:16:24;;;;;;;14.27;5.23;;;;;;;-145.69;100.00;52547.38;5074624;28;20257;-77
2023/01/01 05:18:51;;;;;;;14.80;5.57;;;;;;;-145.69;100.00;52596.88;5074317;28;20198;-76
2023/01/01 05:21:20;;;;;;;11.30;5.40;;;;;;;-145.69;100.00;52592.91;5074523;28;20213;-77
2023/01/01 05:23:47;;;;;;;13.38;6.20;;;;;;;-145.69;100.00;52563.22;5073581;28;20435;-76
2023/01/01 05:26:19;;;;;;;10.10;5.70;;;;;;;-145.69;100.00;52547.38;5074228;28;20203;-76
2023/01/01 05:28:46;;;;;;;14.10;5.80;;;;;;;-145.69;100.00;52606.78;5074131;28;20214;-76
2023/01/01 05:31:14;;;;;;;14.47;5.90;;;;;;;-145.69;100.00;52608.75;5074094;28;20195;-76
2023/01/01 05:33:41;;;;;;;11.30;5.63;;;;;;;-145.69;100.00;52594.91;5073954;28;20199;-76
2023/01/01 05:36:13;;;;;;;14.67;6.10;;;;;;;-145.69;100.00;52620.66;5074276;28;20198;-77
2023/01/01 05:38:40;;;;;;;11.93;5.70;;;;;;;-145.69;100.00;52594.91;5073578;28;20210;-76
2023/01/01 05:41:08;;;;;;;15.20;6.37;;;;;;;-145.69;100.00;52569.16;5073543;28;20596;-76
2023/01/01 05:43:37;;;;;;;15.27;6.23;;;;;;;-145.69;100.00;52626.59;5074184;28;20202;-76
2023/01/01 05:46:06;;;;;;;13.17;6.37;;;;;;;-145.69;100.00;52604.81;5073722;28;20199;-76
2023/01/01 05:48:34;;;;;;;17.33;6.33;;;;;;;-145.69;100.00;52579.06;5074007;28;20210;-77
2023/01/01 05:51:02;;;;;;;13.57;6.10;;;;;;;-145.69;100.00;52616.69;5073529;28;20214;-77
2023/01/01 05:53:29;;;;;;;14.77;6.43;;;;;;;-145.69;100.00;52583.00;5073795;28;20212;-75
2023/01/01 05:55:56;;;;;;;17.30;6.30;;;;;;;-145.69;100.00;52590.94;5073247;28;20218;-77
2023/01/01 05:58:22;;;;;;;13.77;6.37;;;;;;;-145.69;100.00;52563.22;5073519;28;20826;-76
2023/01/01 06:00:50;;;;;;;14.33;5.90;;;;;;;-145.69;100.00;52604.81;5073731;28;20576;-77
2023/01/01 06:03:17;;;;;;;12.70;5.90;;;;;;;-145.69;100.00;52590.94;5073309;28;20579;-76
2023/01/01 06:05:43;;;;;;;10.17;5.30;;;;;;;-145.69;100.00;52600.84;5073526;28;20202;-76
2023/01/01 06:08:10;;;;;;;14.40;7.17;;;;;;;-145.69;100.00;52598.84;5072976;28;20434;-77
2023/01/01 06:10:36;;;;;;;13.30;5.77;;;;;;;-145.69;100.00;52571.13;5073598;28;20441;-76
2023/01/01 06:13:03;;;;;;;12.20;5.47;;;;;;;-145.69;100.00;52583.00;5073772;28;20195;-77
2023/01/01 06:15:29;;;;;;;11.27;5.47;;;;;;;-145.69;100.00;52575.09;5073227;28;20202;-77
2023/01/01 06:17:57;;;;;;;16.23;6.30;;;;;;;-145.69;100.00;52586.97;5070527;28;20229;-76
2023/01/01 06:20:24;;;;;;;11.63;5.07;;;;;;;-145.69;100.00;52598.84;5073141;28;20201;-77
2023/01/01 06:22:50;;;;;;;9.93;4.70;;;;;;;-145.69;100.00;52586.97;5073468;28;20206;-76
2023/01/01 06:25:17;;;;;;;11.40;5.07;;;;;;;-145.69;100.00;52555.28;5073097;28;20199;-77
2023/01/01 06:27:43;;;;;;;15.43;4.97;;;;;;;-145.69;100.00;52545.38;5073254;28;20652;-77
2023/01/01 06:30:10;;;;;;;10.83;4.63;;;;;;;-145.69;100.00;52571.13;5073433;28;20199;-77
2023/01/01 06:32:37;;;;;;;9.13;5.13;;;;;;;-145.69;100.00;52624.59;5072899;28;20191;-77
2023/01/01 06:35:05;;;;;;;9.67;4.63;;;;;;;-145.69;100.00;52588.97;5072192;28;20226;-77
2023/01/01 06:37:32;;;;;;;13.00;5.68;;;;;;;-145.69;100.00;52581.03;5071905;28;20477;-76
2023/01/01 06:39:58;;;;;;;11.60;6.20;;;;;;;-145.69;100.00;52622.63;5072618;28;20693;-77
2023/01/01 06:42:25;;;;;;;11.60;5.20;;;;;;;-145.69;100.00;52594.91;5072545;28;20226;-77
2023/01/01 06:44:51;;;;;;;10.87;4.40;;;;;;;-145.69;100.00;52606.78;5073227;28;20201;-76
2023/01/01 06:47:17;;;;;;;11.33;5.30;;;;;;;-145.69;100.00;52588.97;5072995;28;20668;-76
2023/01/01 06:49:44;;;;;;;16.50;6.10;;;;;;;-145.69;100.00;52594.91;5072906;28;20202;-77
2023/01/01 06:52:12;;;;;;;11.87;5.30;;;;;;;-145.69;100.00;52586.97;5072776;28;20199;-77
2023/01/01 06:54:38;;;;;;;14.37;5.77;;;;;;;-145.69;100.00;52586.97;5073059;28;20367;-76
2023/01/01 06:57:04;;;;;;;15.50;5.30;;;;;;;-145.69;100.00;52561.22;5072952;28;20223;-77
2023/01/01 06:59:31;;;;;;;12.67;5.03;;;;;;;-145.69;100.00;52602.81;5072250;28;20202;-76
2023/01/01 07:01:57;;;;;;;14.87;6.10;;;;;;;-145.69;100.00;52592.91;5072723;28;20240;-77
2023/01/01 07:04:24;;;;;;;12.30;6.00;;;;;;;-145.69;100.00;52586.97;5073218;28;20543;-77
2023/01/01 07:06:50;;;;;;;13.23;5.57;;;;;;;-145.69;100.00;52602.81;5072925;28;20195;-76
2023/01/01 07:09:18;;;;;;;13.03;5.70;;;;;;;-145.69;100.00;52622.63;5072975;28;20195;-76
2023/01/01 07:11:44;;;;;;;15.70;6.00;;;;;;;-145.69;100.00;52586.97;5072429;28;20203;-77
2023/01/01 07:14:11;;;;;;;13.60;6.23;;;;;;;-145.69;100.00;52614.72;5072760;28;20221;-77
2023/01/01 07:16:37;;;;;;;12.53;5.93;;;;;;;-145.69;100.00;52604.81;5072517;28;20199;-77
2023/01/01 07:19:03;;;;;;;13.90;5.83;;;;;;;-145.69;100.00;52583.00;5072496;28;20234;-76
2023/01/01 07:21:31;;;;;;;13.68;6.45;;;;;;;-145.69;100.00;52602.81;5071836;28;20941;-76
2023/01/01 07:23:59;;;;;;;13.93;5.60;;;;;;;-145.69;100.00;52573.13;5072868;28;20195;-76
2023/01/01 07:26:29;;;;;;;13.87;5.00;;;;;;;-145.69;100.00;52610.75;5071912;28;20650;-76
2023/01/01 07:28:56;;;;;;;13.27;5.10;;;;;;;-145.69;100.00;52594.91;5072831;28;20207;-76
2023/01/01 07:31:22;;;;;;;10.33;4.97;;;;;;;-145.69;100.00;52622.63;5072627;28;20202;-76
2023/01/01 07:33:49;;;;;;;10.17;5.40;;;;;;;-145.69;100.00;52581.03;5071831;28;20198;-77
2023/01/01 07:36:16;;;;;;;12.30;5.40;;;;;;;-145.69;100.00;52596.88;5072351;28;20685;-76
2023/01/01 07:38:42;;;;;;;14.10;5.50;;;;;;;-145.69;100.00;52583.00;5072374;28;20230;-76
2023/01/01 07:41:09;;;;;;;9.70;5.17;;;;;;;-145.69;100.00;52610.75;5072363;28;20226;-76
2023/01/01 07:43:37;;;;;;;9.47;4.80;;;;;;;-145.69;100.00;52559.25;5072027;28;20203;-77
2023/01/01 07:46:03;;;;;;;9.77;5.43;;;;;;;-145.69;100.00;52622.63;5072296;28;20665;-76
2023/01/01 07:48:30;;;;;;;15.00;5.23;;;;;;;-145.69;100.00;52571.13;5074269;28;20213;-77
2023/01/01 07:50:56;;;;;;;12.63;4.23;;;;;;;-145.69;100.00;52610.75;5076346;28;20569;-76
2023/01/01 07:53:23;;;;;;;11.47;5.37;;;;;;;-145.69;100.00;52549.34;5076177;28;20206;-76
2023/01/01 07:55:49;;;;;;;10.97;3.90;;;;;;;-145.69;100.00;52535.47;5075161;28;20584;-77
2023/01/01 07:58:16;;;;;;;10.37;4.87;;;;;;;-145.69;100.00;52549.34;5075374;28;20227;-76
2023/01/01 08:00:47;;;;;;;11.20;5.17;;;;;;;-145.69;100.00;52553.31;5075721;28;20203;-78
2023/01/01 08:03:14;;;;;;;9.70;4.87;;;;;;;-145.69;100.00;52571.13;5075530;28;20657;-77
2023/01/01 08:05:40;;;;;;;10.37;4.67;;;;;;;-145.69;100.00;52571.13;5075965;28;20210;-76
2023/01/01 08:08:07;;;;;;;13.30;5.23;;;;;;;-145.69;100.00;52583.00;5075673;28;20207;-76
2023/01/01 08:10:33;;;;;;;11.83;5.30;;;;;;;-145.69;100.00;52577.06;5075937;28;20198;-75
2023/01/01 08:13:01;;;;;;;9.00;4.60;;;;;;;-145.69;100.00;52567.16;5075402;28;20198;-76
2023/01/01 08:15:27;;;;;;;9.90;4.63;;;;;;;-145.69;100.00;52559.25;5075651;28;20241;-76
2023/01/01 08:17:57;;;;;;;12.60;4.53;;;;;;;-145.69;100.00;52563.22;5075863;28;20233;-76
2023/01/01 08:20:23;;;;;;;8.07;4.10;;;;;;;-145.69;100.00;52581.03;5076008;28;20226;-76
2023/01/01 08:22:50;;;;;;;14.37;5.47;;;;;;;-145.69;100.00;52543.41;5075034;28;20199;-75
2023/01/01 08:25:16;;;;;;;8.40;4.53;;;;;;;-145.69;100.00;52579.06;5075513;28;20206;-77
2023/01/01 08:27:43;;;;;;;10.30;4.40;;;;;;;-145.69;100.00;52565.19;5074931;28;20191;-76
2023/01/01 08:30:11;;;;;;;8.97;4.00;;;;;;;-145.69;100.00;52571.13;5075669;28;20199;-76
2023/01/01 08:32:37;;;;;;;9.20;4.50;;;;;;;-145.69;100.00;52547.38;5075029;28;20194;-76
2023/01/01 08:35:07;;;;;;;8.00;3.83;;;;;;;-145.69;100.00;52559.25;5075322;28;20653;-77
2023/01/01 08:37:33;;;;;;;11.03;3.97;;;;;;;-145.69;100.00;52563.22;5074781;28;20233;-76
2023/01/01 08:40:00;;;;;;;7.17;3.83;;;;;;;-145.69;100.00;52551.31;5075025;28;20558;-76
2023/01/01 08:42:26;;;;;;;9.90;4.20;;;;;;;-145.69;100.00;52577.06;5075097;28;20233;-76
2023/01/01 08:44:52;;;;;;;10.73;3.30;;;;;;;-145.69;100.00;52547.38;5075068;28;20194;-76
2023/01/01 08:47:21;;;;;;;7.70;3.83;;;;;;;-145.69;100.00;52581.03;5075246;28;20199;-76
2023/01/01 08:49:47;;;;;;;10.67;4.10;;;;;;;-145.69;100.00;52499.84;5075122;28;20202;-76
2023/01/01 08:52:16;;;;;;;9.23;3.73;;;;;;;-145.69;100.00;52551.31;5075018;28;20202;-76
2023/01/01 08:54:42;;;;;;;9.90;3.60;;;;;;;-145.69;100.00;52547.38;5074934;28;20211;-76
2023/01/01 08:57:09;;;;;;;10.00;3.60;;;;;;;-145.69;100.00;52543.41;5074475;28;20202;-77
2023/01/01 08:59:35;;;;;;;11.53;4.43;;;;;;;-145.69;100.00;52529.53;5074248;28;20227;-77
2023/01/01 09:02:02;;;;;;;9.13;3.47;;;;;;;-145.69;100.00;52565.19;5075012;28;20202;-78
2023/01/01 09:04:28;;;;;;;6.43;2.60;;;;;;;-145.69;100.00;52531.53;5074393;28;20700;-77
2023/01/01 09:06:55;;;;;;;8.07;3.87;;;;;;;-145.69;100.00;52537.47;5074338;28;20207;-79
2023/01/01 09:09:22;;;;;;;10.13;3.97;;;;;;;-145.69;100.00;52539.44;5074418;28;20198;-78
2023/01/01 09:11:51;;;;;;;6.83;3.43;;;;;;;-145.69;100.00;52549.34;5074511;28;20199;-79
2023/01/01 09:14:18;;;;;;;7.17;2.90;;;;;;;-145.69;100.00;52523.59;5074711;28;20201;-78
2023/01/01 09:16:44;;;;;;;13.00;4.20;;;;;;;-145.69;100.00;52547.38;5074688;28;20199;-79
2023/01/01 09:19:11;;;;;;;9.33;3.63;;;;;;;-145.69;100.00;52537.47;5074495;28;20226;-80
2023/01/01 09:21:37;;;;;;;10.68;3.40;;;;;;;-145.69;100.00;52551.31;5074290;28;20197;-78
2023/01/01 09:24:04;;;;;;;13.47;3.47;;;;;;;-145.69;100.00;52571.13;5074480;28;20198;-81
2023/01/01 09:26:32;;;;;;;7.33;2.80;;;;;;;-145.69;100.00;52531.53;5074247;28;20206;-78
2023/01/01 09:28:58;;;;;;;6.20;3.00;;;;;;;-145.69;100.00;52565.19;5074477;28;20202;-78
2023/01/01 09:31:25;;;;;;;7.50;3.03;;;;;;;-145.69;100.00;52543.41;5074187;28;20203;-77
2023/01/01 09:33:51;;;;;;;6.35;2.80;;;;;;;-145.69;100.00;52513.69;5074265;28;20721;-79
2023/01/01 09:36:28;;;;;;;6.77;3.50;;;;;;;-145.69;100.00;52547.38;5074235;28;20206;-79
2023/01/01 09:38:55;;;;;;;9.25;2.92;;;;;;;-145.69;100.00;52515.69;5073545;28;20573;-79
2023/01/01 09:41:28;;;;;;;6.93;2.67;;;;;;;-145.69;100.00;52537.47;5073617;28;20242;-76
2023/01/01 09:44:02;;;;;;;6.97;3.15;;;;;;;-145.69;100.00;52519.63;5073993;28;20650;-76
2023/01/01 09:46:29;;;;;;;7.77;3.70;;;;;;;-145.69;100.00;52559.25;5073902;28;20190;-76
2023/01/01 09:48:59;;;;;;;7.70;2.90;;;;;;;-145.69;100.00;52527.56;5073722;28;20199;-76
2023/01/01 09:51:30;;;;;;;7.37;3.13;;;;;;;-145.69;100.00;52527.56;5074053;28;20202;-76
2023/01/01 09:54:01;;;;;;;4.72;2.58;;;;;;;-145.69;100.00;52499.84;5074007;28;20202;-77
2023/01/01 09:56:30;;;;;;;7.18;2.75;;;;;;;-145.69;100.00;52523.59;5073800;28;20289;-76
2023/01/01 09:58:58;;;;;;;6.40;3.00;;;;;;;-145.69;100.00;52535.47;5073585;28;20222;-77
2023/01/01 10:01:39;;;;;;;5.38;2.10;;;;;;;-145.69;100.00;52499.84;5073619;28;20198;-76
2023/01/01 10:04:22;;;;;;;3.72;2.35;;;;;;;-145.69;100.00;52487.97;5073807;28;20210;-74
2023/01/01 10:06:57;;;;;;;5.28;2.33;;;;;;;-145.69;100.00;52491.91;5073230;28;20203;-74
2023/01/01 10:09:27;;;;;;;7.82;2.25;;;;;;;-145.69;100.00;52507.75;5071946;28;20194;-77
2023/01/01 10:12:00;;;;;;;5.13;2.30;;;;;;;-145.69;100.00;52523.59;5072100;28;20561;-74
2023/01/01 10:14:32;;;;;;;6.28;2.33;;;;;;;-145.69;100.00;52515.69;5073613;28;20668;-74
2023/01/01 10:17:03;;;;;;;8.00;2.55;;;;;;;-145.69;100.00;52480.03;5073905;28;20202;-74
2023/01/01 10:19:35;;;;;;;8.90;2.30;;;;;;;-145.69;100.00;52468.16;5074218;28;20227;-74
2023/01/01 10:22:07;;;;;;;4.18;2.17;;;;;;;-145.69;97.97;52501.81;5074127;28;20272;-74
2023/01/01 10:24:41;;;;;;;9.63;2.70;;;;;;;-145.69;97.23;52460.22;5073922;28;20604;-74
2023/01/01 10:27:22;;;;;;;3.97;2.08;;;;;;;-145.69;96.90;52480.03;5074545;28;20569;-74
2023/01/01 10:29:52;;;;;;;6.35;2.03;;;;;;;-145.69;95.98;52462.22;5079697;28;20225;-76
2023/01/01 10:32:27;;;;;;;5.10;2.05;;;;;;;-145.69;98.34;52472.13;5096432;28;20198;-76
2023/01/01 10:34:55;;;;;;;5.70;1.80;;;;;;;-145.69;92.36;52466.16;5093331;28;20292;-76
2023/01/01 10:37:22;;;;;;;5.45;1.90;;;;;;;-145.69;94.61;52489.94;5089459;28;20200;-74
2023/01/01 10:39:49;;;;;;;9.02;2.15;;;;;;;-145.69;99.29;52464.19;5073091;28;20580;-76
2023/01/01 10:42:16;;;;;;;3.25;2.00;;;;;;;-145.69;99.80;52482.00;5072961;28;20231;-76
2023/01/01 10:44:44;;;;;;;11.07;2.33;;;;;;;-145.69;96.05;52446.38;5073024;28;20198;-76
2023/01/01 10:47:24;;;;;;;6.10;2.03;;;;;;;-145.69;96.08;52487.97;5072621;28;20205;-76
2023/01/01 10:49:55;;;;;;;5.72;1.75;;;;;;;-145.69;90.10;52476.06;5073048;28;20259;-76
2023/01/01 10:52:30;;;;;;;6.53;1.73;;;;;;;-145.69;86.12;52476.06;5073280;28;20203;-77
2023/01/01 10:54:57;;;;;;;6.90;2.25;;;;;;;-145.69;81.11;52454.28;5072965;28;20205;-76
2023/01/01 10:57:32;;;;;;;7.05;2.20;;;;;;;-145.69;88.34;52470.13;5072891;28;20222;-76
2023/01/01 11:00:21;;;;;;;5.88;1.50;;;;;;;-145.69;86.02;52460.22;5072604;28;20253;-76
2023/01/01 11:03:11;;;;;;;7.53;2.20;;;;;;;-145.69;92.64;52456.28;5072448;28;20495;-76
2023/01/01 11:05:37;;;;;;;6.35;1.92;;;;;;;-145.69;94.02;52480.03;5072852;28;20205;-76
2023/01/01 11:08:15;;;;;;;6.80;1.92;;;;;;;-145.69;93.63;52484.00;5072221;28;20195;-76
2023/01/01 11:10:50;;;;;;;6.63;2.10;;;;;;;-145.69;98.60;52468.16;5072684;28;20558;-75
2023/01/01 11:13:19;;;;;;;6.20;2.15;;;;;;;-145.69;100.00;52456.28;5072707;28;20194;-76
2023/01/01 11:15:46;;;;;;;4.35;2.00;;;;;;;-145.69;96.76;52480.03;5072112;28;20281;-75